Time;durP1;ratioP1;P1;durP2;ratioP2;P2;SDS_P1;SDS_P2;PMS_P1;PMS_P2;Temp;Humidity;BMP_temperature;BMP_pressure;BME280_temperature;BME280_humidity;BME280_pressure;Samples;Min_cycle;Max_cycle;Signal;HPM_P1;HPM_P2
2022/08/15 00:01:47;;;;;;;;;;;;;;;;;;5014717;28;19917;-41
2022/08/15 00:04:12;;;;;;;;;;;;;;;;;;5032019;28;19917;-42
2022/08/15 00:06:40;;;;;;;;;;;;;;;;;;5032829;28;19924;-42
2022/08/15 00:09:06;;;;;;;;;;;;;;;;;;5032995;28;19909;-42
2022/08/15 00:11:31;;;;;;;;;;;;;;;;;;5032861;28;19913;-42
2022/08/15 00:13:57;;;;;;;;;;;;;;;;;;5032561;28;19913;-41
2022/08/15 00:16:22;;;;;;;;;;;;;;;;;;5014848;28;19920;-41
2022/08/15 00:18:47;;;;;;;;;;;;;;;;;;5015111;28;19915;-41
2022/08/15 00:21:12;;;;;;;;;;;;;;;;;;5032772;28;19914;-41
2022/08/15 00:23:41;;;;;;;;;;;;;;;;;;5014720;28;19940;-42
2022/08/15 00:26:06;;;;;;;;;;;;;;;;;;5032369;28;20411;-41
2022/08/15 00:28:31;;;;;;;;;;;;;;;;;;5032574;28;19968;-41
2022/08/15 00:30:56;;;;;;;;;;;;;;;;;;5014635;28;20429;-41
2022/08/15 00:33:22;;;;;;;;;;;;;;;;;;5014395;28;19913;-42
2022/08/15 00:35:47;;;;;;;;;;;;;;;;;;5032539;28;19917;-42
2022/08/15 00:38:13;;;;;;;;;;;;;;;;;;5014439;28;19909;-43
2022/08/15 00:43:22;;;;;;;;;;;;;;;;;;5013930;28;19944;-41
2022/08/15 00:45:47;;;;;;;;;;;;;;;;;;5032046;28;20291;-42
2022/08/15 00:50:56;;;;;;;;;;;;;;;;;;5014372;28;20155;-41
2022/08/15 00:53:21;;;;;;;;;;;;;;;;;;5031941;28;19909;-41
2022/08/15 00:55:47;;;;;;;;;;;;;;;;;;5032240;28;19913;-42
2022/08/15 00:58:12;;;;;;;;;;;;;;;;;;5014195;28;19928;-42
2022/08/15 01:00:37;;;;;;;;;;;;;;;;;;5014166;28;19920;-42
2022/08/15 01:03:02;;;;;;;;;;;;;;;;;;5014113;28;20390;-42
2022/08/15 01:05:28;;;;;;;;;;;;;;;;;;5014120;28;20298;-41
2022/08/15 01:07:53;;;;;;;;;;;;;;;;;;5031768;28;19909;-41
2022/08/15 01:10:19;;;;;;;;;;;;;;;;;;5030492;28;19924;-42
2022/08/15 01:12:44;;;;;;;;;;;;;;;;;;5031778;28;20005;-42
2022/08/15 01:15:09;;;;;;;;;;;;;;;;;;5013929;28;19924;-42
2022/08/15 01:17:34;;;;;;;;;;;;;;;;;;5032021;28;19913;-42
2022/08/15 01:20:00;;;;;;;;;;;;;;;;;;5031708;28;19916;-41
2022/08/15 01:22:25;;;;;;;;;;;;;;;;;;5031537;28;19928;-42
2022/08/15 01:24:51;;;;;;;;;;;;;;;;;;5014086;28;19914;-42
2022/08/15 01:27:16;;;;;;;;;;;;;;;;;;5013810;28;20286;-42
2022/08/15 01:29:41;;;;;;;;;;;;;;;;;;5031555;28;20299;-41
2022/08/15 01:32:07;;;;;;;;;;;;;;;;;;4997635;28;19909;-43
2022/08/15 01:34:32;;;;;;;;;;;;;;;;;;5031546;28;19913;-42
2022/08/15 01:36:57;;;;;;;;;;;;;;;;;;5013782;28;19910;-42
2022/08/15 01:39:24;;;;;;;;;;;;;;;;;;5013737;28;19920;-42
2022/08/15 01:41:49;;;;;;;;;;;;;;;;;;5013806;28;19913;-42
2022/08/15 01:44:15;;;;;;;;;;;;;;;;;;5013336;28;19996;-42
2022/08/15 01:46:41;;;;;;;;;;;;;;;;;;5013832;28;20322;-42
2022/08/15 01:49:06;;;;;;;;;;;;;;;;;;5031487;28;19971;-42
2022/08/15 01:51:31;;;;;;;;;;;;;;;;;;5013637;28;20533;-41
2022/08/15 01:53:58;;;;;;;;;;;;;;;;;;5013751;28;20709;-41
2022/08/15 01:56:23;;;;;;;;;;;;;;;;;;5016393;28;19939;-41
2022/08/15 01:58:49;;;;;;;;;;;;;;;;;;5017380;28;19917;-41
2022/08/15 02:01:14;;;;;;;;;;;;;;;;;;5035075;28;20371;-42
2022/08/15 02:03:39;;;;;;;;;;;;;;;;;;5001004;28;19925;-41
2022/08/15 02:06:05;;;;;;;;;;;;;;;;;;5017289;28;20341;-41
2022/08/15 02:08:30;;;;;;;;;;;;;;;;;;5017153;28;19917;-42
2022/08/15 02:10:56;;;;;;;;;;;;;;;;;;5035289;28;20658;-42
2022/08/15 02:13:22;;;;;;;;;;;;;;;;;;5017040;28;19917;-41
2022/08/15 02:15:47;;;;;;;;;;;;;;;;;;5034918;28;19960;-42
2022/08/15 02:18:12;;;;;;;;;;;;;;;;;;5017119;28;19917;-42
2022/08/15 02:20:37;;;;;;;;;;;;;;;;;;5017042;28;19913;-41
2022/08/15 02:23:03;;;;;;;;;;;;;;;;;;5016868;28;19928;-42
2022/08/15 02:25:28;;;;;;;;;;;;;;;;;;5016885;28;19909;-41
2022/08/15 02:27:53;;;;;;;;;;;;;;;;;;5016948;28;19959;-42
2022/08/15 02:30:19;;;;;;;;;;;;;;;;;;5016778;28;20368;-43
2022/08/15 02:32:45;;;;;;;;;;;;;;;;;;5000474;28;19935;-42
2022/08/15 02:35:12;;;;;;;;;;;;;;;;;;5016767;28;20272;-42
2022/08/15 02:37:39;;;;;;;;;;;;;;;;;;5016692;28;19920;-42
2022/08/15 02:40:05;;;;;;;;;;;;;;;;;;5016670;28;19909;-42
2022/08/15 02:42:31;;;;;;;;;;;;;;;;;;5016376;28;20255;-42
2022/08/15 02:44:56;;;;;;;;;;;;;;;;;;5016464;28;19929;-42
2022/08/15 02:47:21;;;;;;;;;;;;;;;;;;5016358;28;19924;-42
2022/08/15 02:49:47;;;;;;;;;;;;;;;;;;5016549;28;19960;-42
2022/08/15 02:52:13;;;;;;;;;;;;;;;;;;5016410;28;19923;-42
2022/08/15 02:54:39;;;;;;;;;;;;;;;;;;5016327;28;19913;-42
2022/08/15 02:57:08;;;;;;;;;;;;;;;;;;5016434;28;19963;-43
2022/08/15 02:59:33;;;;;;;;;;;;;;;;;;5016186;28;19991;-41
2022/08/15 03:01:59;;;;;;;;;;;;;;;;;;5016315;28;19956;-42
2022/08/15 03:04:25;;;;;;;;;;;;;;;;;;5016119;28;19983;-42
2022/08/15 03:06:52;;;;;;;;;;;;;;;;;;5015951;28;19914;-42
2022/08/15 03:09:17;;;;;;;;;;;;;;;;;;5033743;28;20388;-42
2022/08/15 03:11:58;;;;;;;;;;;;;;;;;;5016087;28;20085;-42
2022/08/15 03:14:32;;;;;;;;;;;;;;;;;;5032460;28;19924;-42
2022/08/15 03:16:59;;;;;;;;;;;;;;;;;;5015874;28;19913;-42
2022/08/15 03:19:25;;;;;;;;;;;;;;;;;;5015835;28;20059;-42
2022/08/15 03:21:52;;;;;;;;;;;;;;;;;;5032375;28;19920;-42
2022/08/15 03:24:17;;;;;;;;;;;;;;;;;;5015707;28;19917;-42
2022/08/15 03:26:45;;;;;;;;;;;;;;;;;;5015859;28;19920;-42
2022/08/15 03:29:11;;;;;;;;;;;;;;;;;;5015695;28;19964;-42
2022/08/15 03:31:39;;;;;;;;;;;;;;;;;;5015767;28;20382;-42
2022/08/15 03:34:04;;;;;;;;;;;;;;;;;;5015708;28;20359;-42
2022/08/15 03:36:30;;;;;;;;;;;;;;;;;;4999286;28;19917;-42
2022/08/15 03:38:55;;;;;;;;;;;;;;;;;;5015563;28;19920;-41
2022/08/15 03:41:20;;;;;;;;;;;;;;;;;;5033252;28;19913;-42
2022/08/15 03:43:46;;;;;;;;;;;;;;;;;;5015277;28;19921;-44
2022/08/15 03:46:11;;;;;;;;;;;;;;;;;;5015533;28;19924;-42
2022/08/15 03:48:37;;;;;;;;;;;;;;;;;;5015352;28;19909;-42
2022/08/15 03:51:02;;;;;;;;;;;;;;;;;;5031849;28;19955;-42
2022/08/15 03:53:31;;;;;;;;;;;;;;;;;;5015276;28;19916;-41
2022/08/15 03:55:57;;;;;;;;;;;;;;;;;;5015288;28;19913;-42
2022/08/15 03:58:22;;;;;;;;;;;;;;;;;;5015112;28;20005;-42
2022/08/15 04:00:48;;;;;;;;;;;;;;;;;;4998820;28;19921;-42
2022/08/15 04:03:13;;;;;;;;;;;;;;;;;;5015040;28;19956;-41
2022/08/15 04:05:39;;;;;;;;;;;;;;;;;;5015035;28;20268;-42
2022/08/15 04:08:05;;;;;;;;;;;;;;;;;;5033120;28;20014;-42
2022/08/15 04:10:30;;;;;;;;;;;;;;;;;;5031364;28;20406;-43
2022/08/15 04:12:55;;;;;;;;;;;;;;;;;;5014943;28;19994;-42
2022/08/15 04:15:21;;;;;;;;;;;;;;;;;;5032588;28;20288;-41
2022/08/15 04:17:47;;;;;;;;;;;;;;;;;;5014342;28;19913;-42
2022/08/15 04:20:12;;;;;;;;;;;;;;;;;;5014868;28;20379;-41
2022/08/15 04:22:38;;;;;;;;;;;;;;;;;;5032491;28;19917;-42
2022/08/15 04:25:03;;;;;;;;;;;;;;;;;;5014717;28;19913;-46
2022/08/15 04:27:28;;;;;;;;;;;;;;;;;;5014613;28;19955;-42
2022/08/15 04:29:53;;;;;;;;;;;;;;;;;;5014686;28;19917;-41
2022/08/15 04:32:19;;;;;;;;;;;;;;;;;;5014562;28;19909;-42
2022/08/15 04:34:44;;;;;;;;;;;;;;;;;;5014623;28;20367;-42
2022/08/15 04:37:12;;;;;;;;;;;;;;;;;;5014514;28;20360;-42
2022/08/15 04:39:38;;;;;;;;;;;;;;;;;;5030982;28;19913;-41
2022/08/15 04:42:05;;;;;;;;;;;;;;;;;;4998263;28;19913;-42
2022/08/15 04:44:30;;;;;;;;;;;;;;;;;;5007542;28;19949;-41
2022/08/15 04:46:56;;;;;;;;;;;;;;;;;;5008032;28;19914;-43
2022/08/15 04:49:21;;;;;;;;;;;;;;;;;;4991348;28;20414;-42
2022/08/15 04:51:47;;;;;;;;;;;;;;;;;;4991511;28;20004;-42
2022/08/15 04:54:16;;;;;;;;;;;;;;;;;;4991366;28;19914;-41
2022/08/15 04:56:47;;;;;;;;;;;;;;;;;;5007675;28;19910;-42
2022/08/15 04:59:13;;;;;;;;;;;;;;;;;;5007603;28;19968;-42
2022/08/15 05:01:38;;;;;;;;;;;;;;;;;;4991318;28;19909;-41
2022/08/15 05:04:04;;;;;;;;;;;;;;;;;;4992698;28;19929;-41
2022/08/15 05:06:29;;;;;;;;;;;;;;;;;;4991210;28;19917;-42
2022/08/15 05:08:55;;;;;;;;;;;;;;;;;;5007545;28;20280;-42
2022/08/15 05:11:21;;;;;;;;;;;;;;;;;;4991065;28;19909;-42
2022/08/15 05:13:50;;;;;;;;;;;;;;;;;;4991179;28;20280;-42
2022/08/15 05:16:27;;;;;;;;;;;;;;;;;;4991142;28;19914;-42
2022/08/15 05:18:52;;;;;;;;;;;;;;;;;;4992424;28;20006;-42
2022/08/15 05:21:19;;;;;;;;;;;;;;;;;;4991100;28;20024;-42
2022/08/15 05:23:44;;;;;;;;;;;;;;;;;;4990979;28;20009;-42
2022/08/15 05:26:20;;;;;;;;;;;;;;;;;;4991094;28;20016;-41
2022/08/15 05:28:45;;;;;;;;;;;;;;;;;;4991094;28;19997;-42
2022/08/15 05:31:11;;;;;;;;;;;;;;;;;;4993623;28;19949;-42
2022/08/15 05:33:37;;;;;;;;;;;;;;;;;;4994991;28;20408;-41
2022/08/15 05:36:02;;;;;;;;;;;;;;;;;;4996392;28;20288;-44
2022/08/15 05:38:28;;;;;;;;;;;;;;;;;;4996065;28;20372;-43
2022/08/15 05:40:54;;;;;;;;;;;;;;;;;;4994958;28;19917;-41
2022/08/15 05:43:21;;;;;;;;;;;;;;;;;;5011134;28;20372;-42
2022/08/15 05:45:47;;;;;;;;;;;;;;;;;;5011108;28;19952;-41
2022/08/15 05:48:12;;;;;;;;;;;;;;;;;;4998125;28;20379;-42
2022/08/15 05:50:37;;;;;;;;;;;;;;;;;;4997927;28;19956;-41
2022/08/15 05:53:05;;;;;;;;;;;;;;;;;;5014274;28;19914;-42
2022/08/15 05:55:30;;;;;;;;;;;;;;;;;;5015540;28;20414;-42
2022/08/15 05:57:57;;;;;;;;;;;;;;;;;;5015528;28;19917;-41
2022/08/15 06:00:23;;;;;;;;;;;;;;;;;;5014105;28;19913;-41
2022/08/15 06:02:49;;;;;;;;;;;;;;;;;;5014074;28;19921;-41
2022/08/15 06:05:15;;;;;;;;;;;;;;;;;;5014033;28;20016;-41
2022/08/15 06:07:40;;;;;;;;;;;;;;;;;;5013952;28;19920;-42
2022/08/15 06:10:06;;;;;;;;;;;;;;;;;;5014089;28;19913;-42
2022/08/15 06:12:32;;;;;;;;;;;;;;;;;;5013962;28;19914;-42
2022/08/15 06:15:02;;;;;;;;;;;;;;;;;;5013831;28;19910;-42
2022/08/15 06:17:28;;;;;;;;;;;;;;;;;;5030284;28;19917;-41
2022/08/15 06:19:54;;;;;;;;;;;;;;;;;;5013806;28;19916;-41
2022/08/15 06:22:20;;;;;;;;;;;;;;;;;;4997347;28;19913;-42
2022/08/15 06:24:46;;;;;;;;;;;;;;;;;;5013786;28;19909;-41
2022/08/15 06:27:11;;;;;;;;;;;;;;;;;;5013700;28;20453;-41
2022/08/15 06:29:40;;;;;;;;;;;;;;;;;;5014799;28;20008;-42
2022/08/15 06:32:07;;;;;;;;;;;;;;;;;;5013585;28;19999;-42
2022/08/15 06:34:33;;;;;;;;;;;;;;;;;;5013441;28;19964;-43
2022/08/15 06:36:59;;;;;;;;;;;;;;;;;;5029838;28;19963;-41
2022/08/15 06:39:24;;;;;;;;;;;;;;;;;;5013394;28;19917;-41
2022/08/15 06:41:51;;;;;;;;;;;;;;;;;;5012851;28;19924;-42
2022/08/15 06:44:29;;;;;;;;;;;;;;;;;;5013045;28;20371;-41
2022/08/15 06:46:55;;;;;;;;;;;;;;;;;;5014681;28;19914;-41
2022/08/15 06:49:20;;;;;;;;;;;;;;;;;;4996877;28;20012;-41
2022/08/15 06:51:47;;;;;;;;;;;;;;;;;;5013263;28;20000;-42
2022/08/15 06:54:15;;;;;;;;;;;;;;;;;;5013121;28;19991;-42
2022/08/15 06:56:40;;;;;;;;;;;;;;;;;;5029568;28;20375;-42
2022/08/15 06:59:05;;;;;;;;;;;;;;;;;;5013053;28;20403;-42
2022/08/15 07:01:31;;;;;;;;;;;;;;;;;;5014292;28;20008;-41
2022/08/15 07:03:57;;;;;;;;;;;;;;;;;;5012938;28;19921;-42
2022/08/15 07:06:28;;;;;;;;;;;;;;;;;;5029384;28;19914;-42
2022/08/15 07:08:53;;;;;;;;;;;;;;;;;;5012836;28;19921;-41
2022/08/15 07:11:19;;;;;;;;;;;;;;;;;;5013943;28;20363;-42
2022/08/15 07:13:49;;;;;;;;;;;;;;;;;;5014108;28;20004;-42
2022/08/15 07:16:14;;;;;;;;;;;;;;;;;;5012865;28;20059;-42
2022/08/15 07:18:39;;;;;;;;;;;;;;;;;;5012606;28;20043;-42
2022/08/15 07:21:10;;;;;;;;;;;;;;;;;;5012663;28;20412;-41
2022/08/15 07:23:37;;;;;;;;;;;;;;;;;;5029045;28;19925;-42
2022/08/15 07:26:03;;;;;;;;;;;;;;;;;;5012480;28;19910;-41
2022/08/15 07:28:28;;;;;;;;;;;;;;;;;;5012448;28;20363;-42
2022/08/15 07:30:53;;;;;;;;;;;;;;;;;;5014004;28;19916;-41
2022/08/15 07:33:19;;;;;;;;;;;;;;;;;;5012308;28;19960;-42
2022/08/15 07:35:45;;;;;;;;;;;;;;;;;;5012461;28;19968;-42
2022/08/15 07:38:10;;;;;;;;;;;;;;;;;;5013547;28;19980;-42
2022/08/15 07:40:36;;;;;;;;;;;;;;;;;;5013763;28;20334;-42
2022/08/15 07:43:02;;;;;;;;;;;;;;;;;;5013673;28;19922;-42
2022/08/15 07:45:28;;;;;;;;;;;;;;;;;;5011926;28;20323;-41
2022/08/15 07:48:02;;;;;;;;;;;;;;;;;;5012147;28;19920;-42
2022/08/15 07:50:28;;;;;;;;;;;;;;;;;;5028534;28;20008;-42
2022/08/15 07:52:55;;;;;;;;;;;;;;;;;;5011177;28;20015;-41
2022/08/15 07:55:21;;;;;;;;;;;;;;;;;;5011986;28;20336;-41
2022/08/15 07:57:46;;;;;;;;;;;;;;;;;;5011939;28;19948;-42
2022/08/15 08:00:16;;;;;;;;;;;;;;;;;;5028442;28;19918;-42
2022/08/15 08:02:55;;;;;;;;;;;;;;;;;;5012099;28;19921;-41
2022/08/15 08:05:21;;;;;;;;;;;;;;;;;;5011824;28;19920;-42
2022/08/15 08:07:47;;;;;;;;;;;;;;;;;;5011747;28;19914;-42
2022/08/15 08:10:17;;;;;;;;;;;;;;;;;;5011677;28;19963;-41
2022/08/15 08:12:43;;;;;;;;;;;;;;;;;;5028242;28;19914;-42
2022/08/15 08:15:08;;;;;;;;;;;;;;;;;;5011626;28;20004;-42
2022/08/15 08:17:36;;;;;;;;;;;;;;;;;;5011552;28;19914;-42
2022/08/15 08:20:03;;;;;;;;;;;;;;;;;;5012787;28;19914;-42
2022/08/15 08:22:29;;;;;;;;;;;;;;;;;;5027845;28;20415;-42
2022/08/15 08:24:57;;;;;;;;;;;;;;;;;;5011507;28;19909;-41
2022/08/15 08:27:23;;;;;;;;;;;;;;;;;;5011398;28;20395;-42
2022/08/15 08:29:48;;;;;;;;;;;;;;;;;;5011417;28;20004;-42
2022/08/15 08:32:15;;;;;;;;;;;;;;;;;;4995053;28;19913;-42
2022/08/15 08:34:40;;;;;;;;;;;;;;;;;;5011353;28;19910;-42
2022/08/15 08:37:05;;;;;;;;;;;;;;;;;;5011581;28;19924;-42
2022/08/15 08:39:31;;;;;;;;;;;;;;;;;;5011127;28;19914;-43
2022/08/15 08:41:56;;;;;;;;;;;;;;;;;;5012529;28;20394;-41
2022/08/15 08:44:23;;;;;;;;;;;;;;;;;;5016839;28;19944;-42
2022/08/15 08:46:48;;;;;;;;;;;;;;;;;;5032157;28;19937;-42
2022/08/15 08:49:14;;;;;;;;;;;;;;;;;;5032134;28;20283;-42
2022/08/15 08:51:40;;;;;;;;;;;;;;;;;;5031935;28;20109;-41
2022/08/15 08:54:06;;;;;;;;;;;;;;;;;;5032293;28;20350;-42
2022/08/15 08:56:34;;;;;;;;;;;;;;;;;;5032176;28;19917;-41
2022/08/15 08:59:01;;;;;;;;;;;;;;;;;;5031867;28;20470;-42
2022/08/15 09:01:26;;;;;;;;;;;;;;;;;;5031926;28;20078;-42
2022/08/15 09:03:52;;;;;;;;;;;;;;;;;;5031511;28;19939;-43
2022/08/15 09:06:17;;;;;;;;;;;;;;;;;;5032042;28;20381;-42
2022/08/15 09:08:42;;;;;;;;;;;;;;;;;;5014145;28;20275;-43
2022/08/15 09:11:08;;;;;;;;;;;;;;;;;;5031887;28;20355;-42
2022/08/15 09:13:34;;;;;;;;;;;;;;;;;;5031988;28;19909;-42
2022/08/15 09:16:02;;;;;;;;;;;;;;;;;;5031729;28;20287;-42
2022/08/15 09:18:27;;;;;;;;;;;;;;;;;;5031577;28;20502;-42
2022/08/15 09:20:53;;;;;;;;;;;;;;;;;;5031731;28;19917;-42
2022/08/15 09:23:20;;;;;;;;;;;;;;;;;;5014076;28;19921;-42
2022/08/15 09:25:46;;;;;;;;;;;;;;;;;;5031725;28;20382;-42
2022/08/15 09:28:13;;;;;;;;;;;;;;;;;;5031868;28;19916;-42
2022/08/15 09:30:39;;;;;;;;;;;;;;;;;;5013999;28;19913;-42
2022/08/15 09:33:04;;;;;;;;;;;;;;;;;;5031759;28;19909;-42
2022/08/15 09:35:30;;;;;;;;;;;;;;;;;;5013790;28;19913;-42
2022/08/15 09:37:55;;;;;;;;;;;;;;;;;;5031514;28;20039;-42
2022/08/15 09:40:20;;;;;;;;;;;;;;;;;;5013767;28;20268;-42
2022/08/15 09:42:47;;;;;;;;;;;;;;;;;;5031725;28;20283;-42
2022/08/15 09:45:12;;;;;;;;;;;;;;;;;;5031463;28;19925;-42
2022/08/15 09:47:39;;;;;;;;;;;;;;;;;;5031307;28;19909;-43
2022/08/15 09:50:05;;;;;;;;;;;;;;;;;;5031481;28;19914;-41
2022/08/15 09:52:31;;;;;;;;;;;;;;;;;;4997199;28;19916;-42
2022/08/15 09:54:58;;;;;;;;;;;;;;;;;;5031748;28;19924;-42
2022/08/15 09:57:25;;;;;;;;;;;;;;;;;;5031343;28;19967;-43
2022/08/15 09:59:51;;;;;;;;;;;;;;;;;;5030186;28;19921;-42
2022/08/15 10:02:17;;;;;;;;;;;;;;;;;;5013767;28;19916;-42
2022/08/15 10:04:42;;;;;;;;;;;;;;;;;;5031146;28;19932;-42
2022/08/15 10:07:08;;;;;;;;;;;;;;;;;;5014009;28;19943;-42
2022/08/15 10:09:34;;;;;;;;;;;;;;;;;;5031240;28;19917;-42
2022/08/15 10:11:59;;;;;;;;;;;;;;;;;;5030902;28;19999;-42
2022/08/15 10:14:25;;;;;;;;;;;;;;;;;;5031160;28;20291;-42
2022/08/15 10:16:52;;;;;;;;;;;;;;;;;;5033014;28;19913;-42
2022/08/15 10:19:17;;;;;;;;;;;;;;;;;;5034785;28;19917;-45
2022/08/15 10:21:44;;;;;;;;;;;;;;;;;;5034842;28;19954;-42
2022/08/15 10:24:10;;;;;;;;;;;;;;;;;;5034885;28;20011;-42
2022/08/15 10:26:37;;;;;;;;;;;;;;;;;;5034629;28;20058;-42
2022/08/15 10:29:02;;;;;;;;;;;;;;;;;;5034720;28;20023;-42
2022/08/15 10:31:27;;;;;;;;;;;;;;;;;;5034505;28;20004;-43
2022/08/15 10:33:53;;;;;;;;;;;;;;;;;;5017023;28;19917;-42
2022/08/15 10:36:18;;;;;;;;;;;;;;;;;;5034440;28;19913;-42
2022/08/15 10:38:44;;;;;;;;;;;;;;;;;;5034484;28;20278;-42
2022/08/15 10:41:10;;;;;;;;;;;;;;;;;;5016832;28;19916;-42
2022/08/15 10:43:38;;;;;;;;;;;;;;;;;;5034243;28;19924;-42
2022/08/15 10:46:03;;;;;;;;;;;;;;;;;;5034289;28;19967;-42
2022/08/15 10:48:29;;;;;;;;;;;;;;;;;;5034185;28;19913;-42
2022/08/15 10:50:54;;;;;;;;;;;;;;;;;;5034233;28;19909;-42
2022/08/15 10:53:20;;;;;;;;;;;;;;;;;;5034135;28;20413;-42
2022/08/15 10:55:45;;;;;;;;;;;;;;;;;;5034169;28;19909;-42
2022/08/15 10:58:11;;;;;;;;;;;;;;;;;;5034142;28;20290;-42
2022/08/15 11:00:37;;;;;;;;;;;;;;;;;;5034318;28;19913;-42
2022/08/15 11:03:02;;;;;;;;;;;;;;;;;;5034294;28;19944;-42
2022/08/15 11:05:27;;;;;;;;;;;;;;;;;;5033918;28;19916;-41
2022/08/15 11:07:53;;;;;;;;;;;;;;;;;;5034219;28;20382;-43
2022/08/15 11:10:18;;;;;;;;;;;;;;;;;;5033910;28;20279;-42
2022/08/15 11:12:44;;;;;;;;;;;;;;;;;;5033861;28;19924;-41
2022/08/15 11:15:10;;;;;;;;;;;;;;;;;;5034103;28;20015;-42
2022/08/15 11:17:37;;;;;;;;;;;;;;;;;;5033694;28;19923;-41
2022/08/15 11:20:02;;;;;;;;;;;;;;;;;;5033678;28;19909;-42
2022/08/15 11:22:28;;;;;;;;;;;;;;;;;;5033518;28;20062;-43
2022/08/15 11:24:54;;;;;;;;;;;;;;;;;;5033947;28;19909;-42
2022/08/15 11:27:19;;;;;;;;;;;;;;;;;;5033452;28;19913;-42
2022/08/15 11:29:45;;;;;;;;;;;;;;;;;;5033894;28;20012;-42
2022/08/15 11:32:12;;;;;;;;;;;;;;;;;;5033783;28;19921;-42
2022/08/15 11:34:38;;;;;;;;;;;;;;;;;;5015647;28;19913;-42
2022/08/15 11:37:03;;;;;;;;;;;;;;;;;;5033428;28;19943;-42
2022/08/15 11:39:28;;;;;;;;;;;;;;;;;;5033281;28;20322;-42
2022/08/15 11:41:56;;;;;;;;;;;;;;;;;;5033247;28;20346;-42
2022/08/15 11:44:22;;;;;;;;;;;;;;;;;;5033156;28;19976;-42
2022/08/15 11:46:47;;;;;;;;;;;;;;;;;;5015668;28;20383;-41
2022/08/15 11:49:13;;;;;;;;;;;;;;;;;;5033249;28;20368;-42
2022/08/15 11:51:40;;;;;;;;;;;;;;;;;;5015312;28;19971;-42
2022/08/15 11:54:05;;;;;;;;;;;;;;;;;;5033065;28;19917;-42
2022/08/15 11:56:31;;;;;;;;;;;;;;;;;;5032865;28;20330;-41
2022/08/15 11:58:56;;;;;;;;;;;;;;;;;;5033032;28;19971;-42
2022/08/15 12:01:22;;;;;;;;;;;;;;;;;;5032970;28;19917;-42
2022/08/15 12:03:47;;;;;;;;;;;;;;;;;;5032727;28;19921;-41
2022/08/15 12:06:13;;;;;;;;;;;;;;;;;;5032930;28;19948;-42
2022/08/15 12:08:38;;;;;;;;;;;;;;;;;;5032699;28;20359;-42
2022/08/15 12:11:04;;;;;;;;;;;;;;;;;;5032975;28;19920;-43
2022/08/15 12:13:30;;;;;;;;;;;;;;;;;;5032695;28;19909;-42
2022/08/15 12:15:55;;;;;;;;;;;;;;;;;;5032669;28;20071;-41
2022/08/15 12:18:22;;;;;;;;;;;;;;;;;;5032402;28;19963;-42
2022/08/15 12:20:48;;;;;;;;;;;;;;;;;;5032741;28;19917;-42
2022/08/15 12:23:13;;;;;;;;;;;;;;;;;;5032711;28;19928;-42
2022/08/15 12:25:38;;;;;;;;;;;;;;;;;;5032422;28;19951;-42
2022/08/15 12:28:06;;;;;;;;;;;;;;;;;;5031707;28;20193;-42
2022/08/15 12:30:31;;;;;;;;;;;;;;;;;;5014685;28;20027;-43
2022/08/15 12:32:57;;;;;;;;;;;;;;;;;;5032309;28;19913;-42
2022/08/15 12:35:22;;;;;;;;;;;;;;;;;;5032558;28;20371;-42
2022/08/15 12:37:48;;;;;;;;;;;;;;;;;;5032506;28;20252;-42
2022/08/15 12:40:13;;;;;;;;;;;;;;;;;;5031776;28;19919;-42
2022/08/15 12:42:39;;;;;;;;;;;;;;;;;;5014542;28;19909;-43
2022/08/15 12:45:06;;;;;;;;;;;;;;;;;;5032085;28;19967;-43
2022/08/15 12:47:31;;;;;;;;;;;;;;;;;;5032089;28;20386;-41
2022/08/15 12:49:58;;;;;;;;;;;;;;;;;;5032434;28;19917;-43
2022/08/15 12:52:24;;;;;;;;;;;;;;;;;;5031965;28;20406;-42
2022/08/15 12:54:51;;;;;;;;;;;;;;;;;;5032092;28;20359;-42
2022/08/15 12:57:17;;;;;;;;;;;;;;;;;;5032045;28;20271;-42
2022/08/15 12:59:43;;;;;;;;;;;;;;;;;;5031777;28;19920;-42
2022/08/15 13:02:09;;;;;;;;;;;;;;;;;;5014288;28;19916;-42
2022/08/15 13:04:35;;;;;;;;;;;;;;;;;;5030512;28;19921;-42
2022/08/15 13:07:01;;;;;;;;;;;;;;;;;;5032094;28;19917;-42
2022/08/15 13:09:27;;;;;;;;;;;;;;;;;;5031835;28;19923;-42
2022/08/15 13:11:53;;;;;;;;;;;;;;;;;;5032043;28;19964;-42
2022/08/15 13:14:19;;;;;;;;;;;;;;;;;;5032074;28;19913;-43
2022/08/15 13:16:45;;;;;;;;;;;;;;;;;;5031697;28;20385;-43
2022/08/15 13:19:11;;;;;;;;;;;;;;;;;;5031773;28;19920;-42
2022/08/15 13:24:20;;;;;;;;;;;;;;;;;;5031638;28;19921;-42
2022/08/15 13:26:45;;;;;;;;;;;;;;;;;;5031854;28;19916;-42
2022/08/15 13:29:11;;;;;;;;;;;;;;;;;;5031584;28;20260;-42
2022/08/15 13:31:36;;;;;;;;;;;;;;;;;;5014012;28;19913;-42
2022/08/15 13:34:02;;;;;;;;;;;;;;;;;;5031654;28;19913;-43
2022/08/15 13:36:28;;;;;;;;;;;;;;;;;;5031493;28;19909;-43
2022/08/15 13:38:53;;;;;;;;;;;;;;;;;;5031891;28;20004;-42
2022/08/15 13:41:19;;;;;;;;;;;;;;;;;;5031597;28;20343;-42
2022/08/15 13:43:44;;;;;;;;;;;;;;;;;;5031442;28;19921;-42
2022/08/15 13:46:10;;;;;;;;;;;;;;;;;;5031311;28;20020;-42
2022/08/15 13:48:36;;;;;;;;;;;;;;;;;;5031398;28;19913;-42
2022/08/15 13:51:01;;;;;;;;;;;;;;;;;;5032107;28;19910;-43
2022/08/15 13:53:27;;;;;;;;;;;;;;;;;;5035560;28;19919;-42
2022/08/15 13:55:52;;;;;;;;;;;;;;;;;;5035361;28;19972;-43
2022/08/15 13:58:18;;;;;;;;;;;;;;;;;;5035555;28;19924;-42
2022/08/15 14:00:44;;;;;;;;;;;;;;;;;;5035133;28;19909;-42
2022/08/15 14:03:09;;;;;;;;;;;;;;;;;;5035182;28;19929;-43
2022/08/15 14:05:34;;;;;;;;;;;;;;;;;;5035142;28;19931;-42
2022/08/15 14:08:02;;;;;;;;;;;;;;;;;;5035037;28;20003;-43
2022/08/15 14:10:27;;;;;;;;;;;;;;;;;;5035242;28;20314;-43
2022/08/15 14:12:53;;;;;;;;;;;;;;;;;;5034988;28;19959;-42
2022/08/15 14:15:19;;;;;;;;;;;;;;;;;;5035283;28;19913;-42
2022/08/15 14:17:44;;;;;;;;;;;;;;;;;;5034866;28;20363;-43
2022/08/15 14:20:10;;;;;;;;;;;;;;;;;;5035136;28;19955;-43
2022/08/15 14:22:36;;;;;;;;;;;;;;;;;;5034759;28;19913;-42
2022/08/15 14:25:02;;;;;;;;;;;;;;;;;;5016943;28;19916;-43
2022/08/15 14:27:27;;;;;;;;;;;;;;;;;;5034658;28;19921;-43
2022/08/15 14:29:53;;;;;;;;;;;;;;;;;;5034707;28;19939;-42
2022/08/15 14:32:19;;;;;;;;;;;;;;;;;;5034722;28;19917;-43
2022/08/15 14:34:45;;;;;;;;;;;;;;;;;;5034571;28;20545;-42
2022/08/15 14:37:10;;;;;;;;;;;;;;;;;;5034840;28;19917;-42
2022/08/15 14:39:35;;;;;;;;;;;;;;;;;;5034527;28;20260;-43
2022/08/15 14:42:01;;;;;;;;;;;;;;;;;;5034618;28;19913;-43
2022/08/15 14:44:26;;;;;;;;;;;;;;;;;;5034204;28;20430;-42
2022/08/15 14:46:52;;;;;;;;;;;;;;;;;;5034422;28;19913;-42
2022/08/15 14:49:18;;;;;;;;;;;;;;;;;;5016681;28;19935;-42
2022/08/15 14:51:43;;;;;;;;;;;;;;;;;;5034543;28;19913;-42
2022/08/15 14:54:08;;;;;;;;;;;;;;;;;;5034291;28;20008;-42
2022/08/15 14:56:34;;;;;;;;;;;;;;;;;;5016742;28;19992;-42
2022/08/15 14:58:59;;;;;;;;;;;;;;;;;;5034316;28;20370;-42
2022/08/15 15:01:24;;;;;;;;;;;;;;;;;;5034313;28;19920;-43
2022/08/15 15:03:52;;;;;;;;;;;;;;;;;;5033992;28;19963;-42
2022/08/15 15:06:20;;;;;;;;;;;;;;;;;;5034004;28;19921;-43
2022/08/15 15:08:46;;;;;;;;;;;;;;;;;;5033807;28;19909;-42
2022/08/15 15:11:12;;;;;;;;;;;;;;;;;;5033998;28;19957;-42
2022/08/15 15:13:37;;;;;;;;;;;;;;;;;;5033896;28;19963;-43
2022/08/15 15:16:03;;;;;;;;;;;;;;;;;;5033732;28;19913;-42
2022/08/15 15:18:29;;;;;;;;;;;;;;;;;;5033820;28;19913;-43
2022/08/15 15:20:57;;;;;;;;;;;;;;;;;;5034066;28;19917;-43
2022/08/15 15:23:22;;;;;;;;;;;;;;;;;;5033874;28;19917;-42
2022/08/15 15:25:48;;;;;;;;;;;;;;;;;;5033761;28;20398;-46
2022/08/15 15:28:13;;;;;;;;;;;;;;;;;;5033573;28;20443;-43
2022/08/15 15:30:38;;;;;;;;;;;;;;;;;;5033474;28;19947;-42
2022/08/15 15:33:04;;;;;;;;;;;;;;;;;;5033587;28;19917;-43
2022/08/15 15:35:29;;;;;;;;;;;;;;;;;;5033432;28;19940;-42
2022/08/15 15:37:54;;;;;;;;;;;;;;;;;;5033406;28;19917;-43
2022/08/15 15:40:19;;;;;;;;;;;;;;;;;;5033482;28;19917;-42
2022/08/15 15:42:45;;;;;;;;;;;;;;;;;;5033185;28;19913;-42
2022/08/15 15:45:10;;;;;;;;;;;;;;;;;;5033227;28;19921;-42
2022/08/15 15:47:35;;;;;;;;;;;;;;;;;;5033170;28;19910;-42
2022/08/15 15:50:01;;;;;;;;;;;;;;;;;;5033455;28;20044;-43
2022/08/15 15:52:26;;;;;;;;;;;;;;;;;;5015316;28;20546;-42
2022/08/15 15:54:51;;;;;;;;;;;;;;;;;;5015483;28;19920;-42
2022/08/15 15:57:17;;;;;;;;;;;;;;;;;;5033054;28;19967;-42
2022/08/15 15:59:43;;;;;;;;;;;;;;;;;;5032942;28;19913;-43
2022/08/15 16:02:08;;;;;;;;;;;;;;;;;;5033041;28;19917;-42
2022/08/15 16:04:33;;;;;;;;;;;;;;;;;;5032730;28;20361;-42
2022/08/15 16:06:59;;;;;;;;;;;;;;;;;;5032867;28;19917;-43
2022/08/15 16:09:24;;;;;;;;;;;;;;;;;;5032871;28;19940;-42
2022/08/15 16:11:49;;;;;;;;;;;;;;;;;;5032709;28;19948;-43
2022/08/15 16:14:16;;;;;;;;;;;;;;;;;;5032273;28;19917;-42
2022/08/15 16:16:42;;;;;;;;;;;;;;;;;;5032909;28;19963;-42
2022/08/15 16:19:07;;;;;;;;;;;;;;;;;;5032606;28;19917;-42
2022/08/15 16:21:32;;;;;;;;;;;;;;;;;;5015254;28;19909;-42
2022/08/15 16:23:58;;;;;;;;;;;;;;;;;;5014774;28;20434;-43
2022/08/15 16:26:23;;;;;;;;;;;;;;;;;;5014777;28;19921;-43
2022/08/15 16:28:50;;;;;;;;;;;;;;;;;;5032428;28;19963;-42
2022/08/15 16:31:16;;;;;;;;;;;;;;;;;;5032452;28;19939;-42
2022/08/15 16:33:41;;;;;;;;;;;;;;;;;;5032337;28;19912;-43
2022/08/15 16:36:06;;;;;;;;;;;;;;;;;;5032634;28;19913;-42
2022/08/15 16:38:32;;;;;;;;;;;;;;;;;;5032397;28;20060;-42
2022/08/15 16:40:57;;;;;;;;;;;;;;;;;;5032315;28;19975;-45
2022/08/15 16:43:22;;;;;;;;;;;;;;;;;;5032183;28;19925;-43
2022/08/15 16:45:47;;;;;;;;;;;;;;;;;;5032098;28;19925;-43